Time;durP1;ratioP1;P1;durP2;ratioP2;P2;SDS_P1;SDS_P2;PMS_P1;PMS_P2;Temp;Humidity;BMP_temperature;BMP_pressure;BME280_temperature;BME280_humidity;BME280_pressure;Samples;Min_cycle;Max_cycle;Signal;HPM_P1;HPM_P2
2021/07/05 00:02:18;;;;;;;9.80;9.10;;;;;;;;;;5079551;28;24410;-60
2021/07/05 00:04:44;;;;;;;9.00;8.40;;;;;;;;;;5079473;28;24987;-59
2021/07/05 00:07:09;;;;;;;9.77;9.07;;;;;;;;;;5068092;28;25132;-59
2021/07/05 00:09:34;;;;;;;9.90;9.10;;;;;;;;;;5072553;28;24960;-59
2021/07/05 00:12:00;;;;;;;9.70;9.00;;;;;;;;;;5084838;28;24394;-59
2021/07/05 00:14:25;;;;;;;9.83;9.13;;;;;;;;;;5067936;28;24419;-59
2021/07/05 00:16:50;;;;;;;9.53;8.93;;;;;;;;;;5067214;28;24395;-60
2021/07/05 00:19:16;;;;;;;11.75;10.85;;;;;;;;;;5081695;28;24603;-60
2021/07/05 00:21:41;;;;;;;10.23;9.53;;;;;;;;;;5076975;28;24769;-60
2021/07/05 00:24:06;;;;;;;11.70;10.80;;;;;;;;;;5074645;28;25070;-59
2021/07/05 00:26:31;;;;;;;10.50;9.80;;;;;;;;;;5076015;28;24448;-59
2021/07/05 00:28:57;;;;;;;10.02;9.32;;;;;;;;;;5084148;28;24510;-59
2021/07/05 00:31:22;;;;;;;9.70;9.00;;;;;;;;;;5068571;28;24539;-60
2021/07/05 00:33:47;;;;;;;10.93;10.13;;;;;;;;;;5076215;28;24414;-60
2021/07/05 00:36:12;;;;;;;10.40;9.60;;;;;;;;;;5074206;28;24995;-60
2021/07/05 00:38:38;;;;;;;10.73;9.93;;;;;;;;;;5069168;28;24943;-60
2021/07/05 00:41:03;;;;;;;10.83;10.03;;;;;;;;;;5073983;28;24948;-60
2021/07/05 00:43:29;;;;;;;11.17;10.37;;;;;;;;;;5067677;28;24406;-60
2021/07/05 00:45:55;;;;;;;11.00;10.20;;;;;;;;;;5071322;28;24502;-60
2021/07/05 00:48:20;;;;;;;9.67;8.97;;;;;;;;;;5084730;28;24513;-59
2021/07/05 00:50:45;;;;;;;10.30;9.50;;;;;;;;;;5076420;28;26629;-59
2021/07/05 00:53:10;;;;;;;10.33;9.63;;;;;;;;;;5080545;28;24406;-59
2021/07/05 00:55:35;;;;;;;10.63;9.82;;;;;;;;;;5082500;28;24449;-59
2021/07/05 00:58:01;;;;;;;11.17;10.27;;;;;;;;;;5084104;28;24967;-60
2021/07/05 01:00:26;;;;;;;10.60;9.83;;;;;;;;;;5077429;28;24422;-59
2021/07/05 01:02:52;;;;;;;10.77;9.90;;;;;;;;;;5074041;28;24966;-59
2021/07/05 01:05:17;;;;;;;10.60;9.80;;;;;;;;;;5072076;28;24422;-59
2021/07/05 01:07:43;;;;;;;10.95;10.15;;;;;;;;;;5082536;28;24422;-59
2021/07/05 01:10:09;;;;;;;10.80;10.00;;;;;;;;;;5080988;28;24421;-59
2021/07/05 01:12:34;;;;;;;9.80;9.10;;;;;;;;;;5073856;28;24418;-60
2021/07/05 01:15:00;;;;;;;9.30;8.60;;;;;;;;;;5073775;28;24491;-59
2021/07/05 01:17:25;;;;;;;9.13;8.53;;;;;;;;;;5077205;28;24430;-59
2021/07/05 01:19:51;;;;;;;9.90;9.17;;;;;;;;;;5080827;28;25220;-59
2021/07/05 01:22:16;;;;;;;9.30;8.60;;;;;;;;;;5071638;28;24417;-59
2021/07/05 01:24:42;;;;;;;9.95;9.25;;;;;;;;;;5075779;28;24430;-59
2021/07/05 01:27:07;;;;;;;10.30;9.60;;;;;;;;;;5075018;28;25049;-59
2021/07/05 01:29:33;;;;;;;9.20;8.53;;;;;;;;;;5073926;28;24598;-59
2021/07/05 01:31:58;;;;;;;10.47;9.57;;;;;;;;;;5067645;28;24421;-59
2021/07/05 01:34:23;;;;;;;9.00;8.30;;;;;;;;;;5069802;28;24418;-59
2021/07/05 01:36:49;;;;;;;10.10;9.40;;;;;;;;;;5084967;28;24982;-60
2021/07/05 01:39:14;;;;;;;9.90;9.20;;;;;;;;;;5072121;28;24881;-60
2021/07/05 01:41:39;;;;;;;9.50;8.70;;;;;;;;;;5078327;28;24912;-59
2021/07/05 01:44:04;;;;;;;11.93;11.03;;;;;;;;;;5073306;28;25104;-59
2021/07/05 01:46:29;;;;;;;10.40;9.60;;;;;;;;;;5068254;28;24406;-59
2021/07/05 01:48:55;;;;;;;10.18;9.35;;;;;;;;;;5077598;28;24437;-59
2021/07/05 01:51:21;;;;;;;9.77;9.07;;;;;;;;;;5066824;28;24964;-59
2021/07/05 01:53:46;;;;;;;9.23;8.52;;;;;;;;;;5078432;28;24455;-59
2021/07/05 01:56:11;;;;;;;8.60;7.90;;;;;;;;;;5074098;28;25077;-59
2021/07/05 01:58:37;;;;;;;8.87;8.27;;;;;;;;;;5078072;28;24430;-59
2021/07/05 02:01:02;;;;;;;8.63;8.03;;;;;;;;;;5070093;28;24433;-59
2021/07/05 02:03:28;;;;;;;9.93;9.23;;;;;;;;;;5070090;28;25081;-59
2021/07/05 02:05:53;;;;;;;9.23;8.63;;;;;;;;;;5071887;28;24433;-59
2021/07/05 02:08:18;;;;;;;9.67;8.97;;;;;;;;;;5074559;28;24821;-60
2021/07/05 02:10:44;;;;;;;10.00;9.30;;;;;;;;;;5083379;28;25097;-59
2021/07/05 02:13:18;;;;;;;8.38;7.78;;;;;;;;;;5075529;28;24501;-59
2021/07/05 02:15:43;;;;;;;8.40;7.80;;;;;;;;;;5071632;28;24421;-59
2021/07/05 02:18:08;;;;;;;9.03;8.33;;;;;;;;;;5073680;28;24453;-60
2021/07/05 02:20:34;;;;;;;8.23;7.73;;;;;;;;;;5068701;28;24411;-59
2021/07/05 02:23:00;;;;;;;9.95;9.20;;;;;;;;;;5074078;28;24800;-59
2021/07/05 02:25:27;;;;;;;9.40;8.70;;;;;;;;;;5074535;28;24419;-60
2021/07/05 02:27:53;;;;;;;9.27;8.48;;;;;;;;;;5085557;28;24418;-59
2021/07/05 02:30:19;;;;;;;9.18;8.48;;;;;;;;;;5090051;28;24413;-60
2021/07/05 02:32:46;;;;;;;8.60;7.90;;;;;;;;;;5079603;28;24459;-58
2021/07/05 02:35:12;;;;;;;8.13;7.63;;;;;;;;;;5071774;28;24422;-59
2021/07/05 02:37:38;;;;;;;8.85;8.23;;;;;;;;;;5082193;28;24529;-58
2021/07/05 02:40:05;;;;;;;8.60;8.00;;;;;;;;;;5079928;28;24498;-59
2021/07/05 02:42:30;;;;;;;8.55;7.95;;;;;;;;;;5086165;28;24394;-58
2021/07/05 02:44:55;;;;;;;9.17;8.47;;;;;;;;;;5078124;28;24777;-59
2021/07/05 02:47:20;;;;;;;8.80;8.10;;;;;;;;;;5083357;28;24497;-59
2021/07/05 02:49:46;;;;;;;9.15;8.35;;;;;;;;;;5069604;28;24418;-58
2021/07/05 02:52:11;;;;;;;8.90;8.20;;;;;;;;;;5070377;28;24816;-59
2021/07/05 02:54:36;;;;;;;9.00;8.30;;;;;;;;;;5069921;28;24522;-59
2021/07/05 02:57:01;;;;;;;8.07;7.47;;;;;;;;;;5072271;28;24513;-57
2021/07/05 02:59:27;;;;;;;9.30;8.40;;;;;;;;;;5068876;28;24777;-59
2021/07/05 03:01:52;;;;;;;9.20;8.40;;;;;;;;;;5077163;28;24437;-58
2021/07/05 03:04:18;;;;;;;8.95;8.35;;;;;;;;;;5075132;28;24407;-58
2021/07/05 03:06:43;;;;;;;7.65;7.05;;;;;;;;;;5075317;28;24426;-58
2021/07/05 03:09:08;;;;;;;8.10;7.40;;;;;;;;;;5075259;28;24406;-59
2021/07/05 03:11:34;;;;;;;8.15;7.55;;;;;;;;;;5082997;28;24491;-57
2021/07/05 03:14:00;;;;;;;7.70;7.20;;;;;;;;;;5069417;28;25355;-58
2021/07/05 03:16:25;;;;;;;8.40;7.80;;;;;;;;;;5071521;28;24436;-58
2021/07/05 03:18:51;;;;;;;8.32;7.63;;;;;;;;;;5073260;28;24968;-57
2021/07/05 03:21:16;;;;;;;7.60;7.00;;;;;;;;;;5085892;28;24410;-57
2021/07/05 03:23:41;;;;;;;6.80;6.30;;;;;;;;;;5075406;28;24410;-58
2021/07/05 03:26:06;;;;;;;7.47;6.87;;;;;;;;;;5080087;28;25333;-57
2021/07/05 03:28:31;;;;;;;6.78;6.28;;;;;;;;;;5075764;28;24573;-57
2021/07/05 03:30:57;;;;;;;6.27;5.87;;;;;;;;;;5076238;28;24803;-57
2021/07/05 03:33:22;;;;;;;6.50;6.00;;;;;;;;;;5077555;28;24410;-57
2021/07/05 03:35:49;;;;;;;7.17;6.57;;;;;;;;;;5077413;28;24433;-58
2021/07/05 03:38:16;;;;;;;6.57;6.07;;;;;;;;;;5072548;28;24427;-57
2021/07/05 03:40:41;;;;;;;6.50;6.00;;;;;;;;;;5086866;28;24998;-58
2021/07/05 03:43:06;;;;;;;6.80;6.30;;;;;;;;;;5086639;28;24407;-57
2021/07/05 03:45:32;;;;;;;6.10;5.70;;;;;;;;;;5071065;28;24418;-57
2021/07/05 03:47:58;;;;;;;6.70;6.20;;;;;;;;;;5076933;28;24429;-57
2021/07/05 03:50:24;;;;;;;6.70;6.20;;;;;;;;;;5079638;28;24915;-57
2021/07/05 03:52:49;;;;;;;6.47;5.97;;;;;;;;;;5082245;28;24457;-58
2021/07/05 03:55:15;;;;;;;6.68;6.18;;;;;;;;;;5077288;28;24789;-57
2021/07/05 03:57:41;;;;;;;6.00;5.60;;;;;;;;;;5083006;28;24430;-57
2021/07/05 04:00:07;;;;;;;6.57;6.07;;;;;;;;;;5083434;28;24899;-58
2021/07/05 04:02:32;;;;;;;6.90;6.40;;;;;;;;;;5072571;28;24995;-58
2021/07/05 04:04:58;;;;;;;6.90;6.40;;;;;;;;;;5074810;28;24582;-58
2021/07/05 04:07:23;;;;;;;5.80;5.40;;;;;;;;;;5067424;28;24467;-58
2021/07/05 04:09:48;;;;;;;5.90;5.50;;;;;;;;;;5074110;28;24476;-58
2021/07/05 04:12:16;;;;;;;6.20;5.70;;;;;;;;;;5079848;28;24511;-58
2021/07/05 04:14:41;;;;;;;5.60;5.20;;;;;;;;;;5071614;28;24493;-58
2021/07/05 04:17:06;;;;;;;5.95;5.50;;;;;;;;;;5076913;28;24503;-57
2021/07/05 04:19:32;;;;;;;6.43;6.03;;;;;;;;;;5078051;28;24411;-58
2021/07/05 04:21:57;;;;;;;5.93;5.53;;;;;;;;;;5075400;28;24402;-58
2021/07/05 04:24:22;;;;;;;5.27;4.97;;;;;;;;;;5086580;28;24991;-58
2021/07/05 04:26:48;;;;;;;5.87;5.37;;;;;;;;;;5081657;28;24479;-58
2021/07/05 04:29:13;;;;;;;5.80;5.38;;;;;;;;;;5076710;28;24467;-57
2021/07/05 04:31:38;;;;;;;6.00;5.50;;;;;;;;;;5077971;28;24451;-58
2021/07/05 04:34:04;;;;;;;5.43;5.03;;;;;;;;;;5087122;28;24750;-57
2021/07/05 04:36:29;;;;;;;5.30;4.90;;;;;;;;;;5081371;28;24411;-57
2021/07/05 04:38:54;;;;;;;4.90;4.60;;;;;;;;;;5068624;28;24421;-58
2021/07/05 04:41:19;;;;;;;5.30;4.90;;;;;;;;;;5068480;28;24504;-58
2021/07/05 04:43:44;;;;;;;5.33;4.93;;;;;;;;;;5068104;28;24454;-57
2021/07/05 04:46:09;;;;;;;6.00;5.50;;;;;;;;;;5076290;28;24410;-57
2021/07/05 04:48:34;;;;;;;4.83;4.53;;;;;;;;;;5072163;28;24514;-57
2021/07/05 04:51:00;;;;;;;5.07;4.70;;;;;;;;;;5067319;28;24816;-58
2021/07/05 04:53:26;;;;;;;4.83;4.50;;;;;;;;;;5066789;28;24435;-57
2021/07/05 04:55:51;;;;;;;5.10;4.70;;;;;;;;;;5068815;28;24447;-58
2021/07/05 04:58:17;;;;;;;5.07;4.60;;;;;;;;;;5075971;28;24488;-58
2021/07/05 05:00:42;;;;;;;5.00;4.60;;;;;;;;;;5072893;28;24407;-58
2021/07/05 05:03:07;;;;;;;4.57;4.20;;;;;;;;;;5074811;28;24471;-57
2021/07/05 05:05:33;;;;;;;5.17;4.77;;;;;;;;;;5074888;28;24807;-57
2021/07/05 05:07:58;;;;;;;5.30;4.90;;;;;;;;;;5078705;28;24414;-58
2021/07/05 05:10:24;;;;;;;4.67;4.30;;;;;;;;;;5082688;28;24425;-58
2021/07/05 05:12:49;;;;;;;4.60;4.30;;;;;;;;;;5077659;28;24986;-58
2021/07/05 05:15:17;;;;;;;4.65;4.30;;;;;;;;;;5070016;28;24471;-58
2021/07/05 05:17:42;;;;;;;4.93;4.53;;;;;;;;;;5064794;28;24454;-58
2021/07/05 05:20:09;;;;;;;4.97;4.57;;;;;;;;;;5065402;28;24948;-58
2021/07/05 05:22:34;;;;;;;4.95;4.55;;;;;;;;;;5067575;28;24406;-58
2021/07/05 05:24:59;;;;;;;4.80;4.47;;;;;;;;;;5070237;28;25052;-58
2021/07/05 05:27:24;;;;;;;4.97;4.57;;;;;;;;;;5081123;28;24410;-58
2021/07/05 05:29:49;;;;;;;5.50;5.10;;;;;;;;;;5083285;28;24391;-59
2021/07/05 05:32:15;;;;;;;5.65;5.15;;;;;;;;;;5071496;28;24487;-57
2021/07/05 05:34:40;;;;;;;4.83;4.53;;;;;;;;;;5090954;28;24414;-58
2021/07/05 05:37:05;;;;;;;5.00;4.60;;;;;;;;;;5082388;28;24406;-58
2021/07/05 05:39:30;;;;;;;5.40;4.90;;;;;;;;;;5074394;28;24410;-58
2021/07/05 05:41:55;;;;;;;5.50;5.10;;;;;;;;;;5070698;28;24517;-58
2021/07/05 05:44:20;;;;;;;5.70;5.20;;;;;;;;;;5066175;28;24972;-58
2021/07/05 05:46:45;;;;;;;5.15;4.85;;;;;;;;;;5075168;28;24403;-58
2021/07/05 05:49:11;;;;;;;5.60;5.20;;;;;;;;;;5065144;28;24510;-58
2021/07/05 05:51:36;;;;;;;5.10;4.80;;;;;;;;;;5073372;28;25425;-59
2021/07/05 05:54:05;;;;;;;5.88;5.43;;;;;;;;;;5078320;28;24465;-59
2021/07/05 05:56:32;;;;;;;5.40;5.00;;;;;;;;;;5071113;28;24411;-57
2021/07/05 05:59:01;;;;;;;6.10;5.60;;;;;;;;;;5066088;28;25291;-58
2021/07/05 06:01:27;;;;;;;5.32;4.93;;;;;;;;;;5073493;28;24406;-58
2021/07/05 06:03:53;;;;;;;5.93;5.33;;;;;;;;;;5083007;28;24727;-58
2021/07/05 06:06:18;;;;;;;5.80;5.40;;;;;;;;;;5079484;28;24833;-58
2021/07/05 06:08:43;;;;;;;5.53;5.03;;;;;;;;;;5078936;28;24414;-59
2021/07/05 06:11:08;;;;;;;5.50;5.10;;;;;;;;;;5071965;28;25045;-57
2021/07/05 06:13:33;;;;;;;6.40;5.80;;;;;;;;;;5077673;28;25057;-56
2021/07/05 06:15:58;;;;;;;4.90;4.60;;;;;;;;;;5078233;28;24447;-56
2021/07/05 06:18:24;;;;;;;5.25;4.85;;;;;;;;;;5072877;28;24435;-56
2021/07/05 06:20:49;;;;;;;5.03;4.63;;;;;;;;;;5082203;28;24811;-56
2021/07/05 06:23:18;;;;;;;5.00;4.70;;;;;;;;;;5069819;28;24445;-56
2021/07/05 06:25:44;;;;;;;5.32;5.03;;;;;;;;;;5072035;28;24442;-57
2021/07/05 06:28:10;;;;;;;5.00;4.60;;;;;;;;;;5074250;28;24457;-57
2021/07/05 06:30:35;;;;;;;6.13;5.63;;;;;;;;;;5084073;28;25024;-57
2021/07/05 06:33:00;;;;;;;5.90;5.40;;;;;;;;;;5075929;28;24423;-57
2021/07/05 06:35:25;;;;;;;4.70;4.40;;;;;;;;;;5092469;28;24444;-57
2021/07/05 06:37:50;;;;;;;5.50;5.10;;;;;;;;;;5093224;27;24472;-57
2021/07/05 06:40:15;;;;;;;5.10;4.80;;;;;;;;;;5075699;28;25192;-56
2021/07/05 06:42:41;;;;;;;4.87;4.47;;;;;;;;;;5068238;28;24422;-58
2021/07/05 06:45:06;;;;;;;4.47;4.10;;;;;;;;;;5080119;28;24702;-57
2021/07/05 06:47:31;;;;;;;5.87;5.10;;;;;;;;;;5077366;28;24426;-57
2021/07/05 06:49:56;;;;;;;5.27;4.87;;;;;;;;;;5078401;28;25101;-58
2021/07/05 06:52:21;;;;;;;5.78;5.38;;;;;;;;;;5086048;28;25116;-58
2021/07/05 06:54:47;;;;;;;5.90;5.50;;;;;;;;;;5069272;28;24980;-58
2021/07/05 06:57:30;;;;;;;6.37;5.77;;;;;;;;;;5074936;28;24441;-57
2021/07/05 06:59:56;;;;;;;6.97;6.38;;;;;;;;;;5069902;28;24450;-58
2021/07/05 07:02:21;;;;;;;4.90;4.50;;;;;;;;;;5069416;28;24453;-57
2021/07/05 07:04:46;;;;;;;6.30;5.70;;;;;;;;;;5072406;28;24952;-59
2021/07/05 07:07:11;;;;;;;6.10;5.60;;;;;;;;;;5069898;28;24498;-58
2021/07/05 07:09:36;;;;;;;5.95;5.45;;;;;;;;;;5068677;28;24952;-59
2021/07/05 07:12:02;;;;;;;4.80;4.40;;;;;;;;;;5071432;28;24814;-59
2021/07/05 07:14:27;;;;;;;5.17;4.67;;;;;;;;;;5084513;28;24418;-59
2021/07/05 07:16:55;;;;;;;5.10;4.70;;;;;;;;;;5080407;28;24417;-59
2021/07/05 07:19:20;;;;;;;4.90;4.50;;;;;;;;;;5073227;28;24925;-59
2021/07/05 07:21:47;;;;;;;5.70;5.20;;;;;;;;;;5078783;28;24422;-58
2021/07/05 07:24:12;;;;;;;4.93;4.53;;;;;;;;;;5078061;28;24457;-58
2021/07/05 07:26:37;;;;;;;4.60;4.30;;;;;;;;;;5087991;28;24426;-58
2021/07/05 07:29:02;;;;;;;4.70;4.30;;;;;;;;;;5074326;28;24979;-58
2021/07/05 07:31:28;;;;;;;5.63;5.00;;;;;;;;;;5083336;28;24505;-58
2021/07/05 07:33:53;;;;;;;4.60;4.20;;;;;;;;;;5076276;28;24660;-58
2021/07/05 07:36:18;;;;;;;4.87;4.37;;;;;;;;;;5077941;28;24429;-58
2021/07/05 07:38:47;;;;;;;4.27;3.97;;;;;;;;;;5076535;28;24423;-59
2021/07/05 07:41:14;;;;;;;5.20;4.40;;;;;;;;;;5074790;28;25018;-59
2021/07/05 07:43:39;;;;;;;3.90;3.63;;;;;;;;;;5079301;28;25010;-59
2021/07/05 07:46:05;;;;;;;3.75;3.55;;;;;;;;;;5077251;28;24582;-59
2021/07/05 07:48:30;;;;;;;3.70;3.50;;;;;;;;;;5083931;28;24418;-59
